Time;durP1;ratioP1;P1;durP2;ratioP2;P2;SDS_P1;SDS_P2;PMS_P1;PMS_P2;Temp;Humidity;BMP_temperature;BMP_pressure;BME280_temperature;BME280_humidity;BME280_pressure;Samples;Min_cycle;Max_cycle;Signal;HPM_P1;HPM_P2
2022/05/23 04:13:18;;;;;;;9.68;5.75;;;;;;;10.73;92.81;100061.09;5578270;31;252178;-87
2022/05/23 04:16:23;;;;;;;8.65;5.78;;;;;;;10.75;92.60;100060.97;5565505;32;34545;-87
2022/05/23 04:19:26;;;;;;;7.45;5.30;;;;;;;10.82;91.83;100056.19;5565600;32;33566;-87
2022/05/23 04:22:34;;;;;;;8.35;5.35;;;;;;;10.88;90.73;100051.41;5564228;32;33547;-87
2022/05/23 04:25:41;;;;;;;7.18;4.93;;;;;;;11.02;89.85;100049.78;5563766;32;33302;-87
2022/05/23 04:28:44;;;;;;;5.50;4.95;;;;;;;11.12;88.87;100050.09;5563809;32;34809;-87
2022/05/23 04:31:47;;;;;;;7.03;5.25;;;;;;;11.36;88.28;100049.63;5563932;32;33529;-87
2022/05/23 04:38:12;;;;;;;5.45;4.90;;;;;;;11.76;86.38;100046.41;5563521;32;33427;-87
2022/05/23 04:41:16;;;;;;;5.32;4.53;;;;;;;11.86;84.53;100052.88;5563497;32;32484;-87
2022/05/23 04:44:20;;;;;;;8.70;4.53;;;;;;;11.96;84.10;100051.38;5563615;32;34093;-85
2022/05/23 04:50:47;;;;;;;5.00;4.53;;;;;;;12.54;82.45;100055.88;5563890;32;34913;-91
2022/05/23 04:53:53;;;;;;;4.65;4.12;;;;;;;12.63;80.11;100059.75;5565451;32;33924;-83
2022/05/23 04:56:56;;;;;;;6.30;4.60;;;;;;;12.92;81.51;100051.69;5574916;32;34250;-86
2022/05/23 05:00:08;;;;;;;11.60;4.57;;;;;;;13.40;77.00;100050.37;5573131;32;32006;-86
2022/05/23 05:03:11;;;;;;;4.82;4.43;;;;;;;13.38;76.81;100055.78;5567053;32;33527;-86
2022/05/23 05:06:16;;;;;;;7.40;4.80;;;;;;;13.60;75.71;100071.25;5567453;32;34136;-83
2022/05/23 05:09:19;;;;;;;4.45;4.05;;;;;;;13.73;75.05;100070.41;5566326;32;33308;-83
2022/05/23 05:12:24;;;;;;;5.10;4.32;;;;;;;14.04;73.55;100068.31;5565860;32;32529;-83
2022/05/23 05:15:28;;;;;;;4.40;4.00;;;;;;;14.23;71.81;100078.53;5560141;32;32484;-84
2022/05/23 05:18:32;;;;;;;5.35;4.20;;;;;;;14.52;71.16;100083.63;5554424;32;35414;-83
2022/05/23 05:21:36;;;;;;;9.05;3.22;;;;;;;14.75;69.34;100077.63;5557748;32;34231;-83
2022/05/23 05:24:46;;;;;;;;;;;;;;;15.79;66.02;100072.66;5535353;32;34235;-84
2022/05/23 05:27:50;;;;;;;6.60;3.20;;;;;;;18.18;56.84;100079.38;5532418;32;34470;-84
2022/05/23 05:31:05;;;;;;;4.10;2.90;;;;;;;22.12;46.57;100070.41;5534264;32;34433;-84
2022/05/23 05:34:44;;;;;;;5.20;2.83;;;;;;;25.72;36.67;100060.69;5543070;32;34284;-84
2022/05/23 05:38:13;;;;;;;4.90;3.17;;;;;;;27.39;32.37;100057.59;5515440;32;32643;-84
2022/05/23 05:41:20;;;;;;;3.80;2.90;;;;;;;28.07;31.44;100062.59;5551088;32;33774;-84
2022/05/23 05:44:30;;;;;;;4.18;2.70;;;;;;;28.72;30.07;100061.47;5545530;32;32428;-88
2022/05/23 05:47:36;;;;;;;3.37;2.40;;;;;;;29.63;28.28;100063.16;5543960;32;34762;-88
2022/05/23 05:50:41;;;;;;;4.72;2.60;;;;;;;28.89;29.80;100053.78;5540065;32;34348;-86
2022/05/23 05:53:45;;;;;;;5.12;2.58;;;;;;;28.25;30.30;100059.38;5543050;32;34449;-85
2022/05/23 05:56:50;;;;;;;3.85;2.30;;;;;;;27.97;30.50;100060.19;5545083;32;33495;-85
2022/05/23 05:59:53;;;;;;;3.20;2.30;;;;;;;29.01;28.49;100058.66;5537947;32;33280;-84
2022/05/23 06:02:56;;;;;;;2.55;2.30;;;;;;;30.67;26.31;100057.91;5541617;32;33699;-83
2022/05/23 06:12:44;;;;;;;2.55;2.30;;;;;;;30.84;25.29;100060.16;5542381;32;32585;-84
2022/05/23 06:15:51;;;;;;;3.47;2.58;;;;;;;30.88;25.54;100058.66;5541319;32;33773;-84
2022/05/23 06:18:55;;;;;;;4.05;2.35;;;;;;;32.37;22.52;100061.03;5550283;32;32974;-85
2022/05/23 06:21:59;;;;;;;5.25;2.35;;;;;;;32.95;21.70;100066.25;5542767;32;33907;-85
2022/05/23 06:25:02;;;;;;;4.00;2.50;;;;;;;31.73;22.88;100067.56;5536860;32;34818;-84
2022/05/23 06:28:05;;;;;;;4.87;2.35;;;;;;;31.66;23.07;100066.78;5545510;32;32478;-86
2022/05/23 06:31:09;;;;;;;7.93;2.30;;;;;;;33.93;20.84;100076.16;5539506;32;34522;-86
2022/05/23 06:34:13;;;;;;;9.18;2.95;;;;;;;31.76;23.06;100069.03;5539557;32;33847;-85
2022/05/23 06:37:18;;;;;;;3.20;2.90;;;;;;;27.34;28.49;100066.38;5528878;32;33172;-85
2022/05/23 06:40:23;;;;;;;4.60;3.00;;;;;;;26.72;29.89;100063.16;5533741;32;32490;-85
2022/05/23 06:43:30;;;;;;;3.10;2.62;;;;;;;26.31;29.99;100054.50;5543075;32;33990;-84
2022/05/23 06:46:40;;;;;;;5.00;2.72;;;;;;;24.90;32.19;100052.97;5533105;32;33080;-85
2022/05/23 06:49:44;;;;;;;7.20;3.17;;;;;;;24.18;33.58;100055.59;5540253;32;34463;-84
2022/05/23 06:52:49;;;;;;;4.40;2.50;;;;;;;24.07;33.68;100037.00;5539301;32;33232;-84
2022/05/23 06:55:54;;;;;;;4.85;2.20;;;;;;;25.15;31.34;100034.63;5535764;32;34195;-84
2022/05/23 06:58:57;;;;;;;3.78;2.20;;;;;;;25.54;28.93;100029.28;5538725;32;34225;-84
2022/05/23 07:02:01;;;;;;;4.93;2.40;;;;;;;25.60;28.17;100031.28;5543995;32;33901;-84
2022/05/23 07:15:12;;;;;;;4.18;2.30;;;;;;;25.93;28.25;100025.50;5532694;32;32636;-85
2022/05/23 07:18:17;;;;;;;5.50;2.30;;;;;;;25.03;28.72;100026.06;5536631;32;32649;-85
2022/05/23 07:21:21;;;;;;;2.30;1.92;;;;;;;25.29;29.08;100014.00;5533948;32;32560;-85
2022/05/23 07:24:24;;;;;;;12.10;2.50;;;;;;;25.41;28.92;100003.56;5550929;32;34137;-84
2022/05/23 07:27:28;;;;;;;5.70;2.10;;;;;;;25.72;28.43;100006.34;5550629;32;32858;-84
2022/05/23 07:30:31;;;;;;;4.53;2.08;;;;;;;25.92;28.11;100004.78;5552276;32;34292;-84
2022/05/23 07:33:34;;;;;;;8.05;2.78;;;;;;;25.61;28.63;100004.94;5541196;32;32908;-84
2022/05/23 07:36:37;;;;;;;4.95;2.20;;;;;;;25.48;28.36;100008.28;5542563;32;32913;-85
2022/05/23 07:39:41;;;;;;;5.25;2.30;;;;;;;25.33;28.96;100010.94;5532770;32;34671;-85
2022/05/23 07:42:45;;;;;;;4.75;2.08;;;;;;;25.36;28.23;100006.00;5538998;32;34657;-85
2022/05/23 07:45:49;;;;;;;4.95;2.10;;;;;;;25.97;28.21;100001.50;5536273;32;32349;-85
2022/05/23 07:48:52;;;;;;;15.00;2.70;;;;;;;25.58;28.17;100003.44;5532509;32;35140;-85
2022/05/23 07:51:56;;;;;;;5.20;2.12;;;;;;;25.61;28.01;99996.78;5540688;32;32351;-85
2022/05/23 08:01:50;;;;;;;4.87;2.00;;;;;;;26.19;26.22;100004.34;5536473;32;32669;-85
2022/05/23 08:04:54;;;;;;;3.95;2.00;;;;;;;26.35;26.66;100004.13;5534023;32;33920;-89
2022/05/23 08:07:57;;;;;;;6.10;1.83;;;;;;;26.60;26.72;99997.53;5550792;32;32889;-89
2022/05/23 08:11:01;;;;;;;6.93;2.22;;;;;;;26.34;26.22;99997.03;5534521;32;32467;-89
2022/05/23 08:14:05;;;;;;;8.93;2.45;;;;;;;26.22;26.90;99990.34;5530117;32;33293;-85
2022/05/23 08:17:12;;;;;;;6.78;2.10;;;;;;;26.58;26.76;99984.13;5532358;32;34340;-86
2022/05/23 08:20:17;;;;;;;5.03;1.75;;;;;;;27.02;26.69;99984.19;5545925;32;34571;-86
2022/05/23 08:23:21;;;;;;;4.07;1.50;;;;;;;27.92;24.34;99978.22;5531538;32;32783;-86
2022/05/23 08:26:34;;;;;;;4.85;1.48;;;;;;;28.16;22.62;99978.72;5540834;32;33000;-85
2022/05/23 08:29:37;;;;;;;1.40;1.12;;;;;;;27.64;21.97;99967.31;5550063;32;34515;-85
2022/05/23 08:32:41;;;;;;;2.50;1.17;;;;;;;27.82;21.19;99972.28;5536432;32;35133;-86
2022/05/23 08:35:44;;;;;;;2.47;1.23;;;;;;;27.60;20.86;99971.50;5536919;32;32676;-86
2022/05/23 08:38:49;;;;;;;3.42;1.20;;;;;;;26.89;21.42;99966.66;5548257;32;33915;-85
2022/05/23 08:41:53;;;;;;;2.97;1.35;;;;;;;27.13;22.99;99969.22;5540935;32;34415;-85
2022/05/23 08:45:14;;;;;;;6.57;1.60;;;;;;;27.31;22.45;99960.59;5555248;32;34926;-85
2022/05/23 08:48:18;;;;;;;2.78;1.20;;;;;;;27.87;22.38;99964.34;5547342;32;33920;-86
2022/05/23 08:51:35;;;;;;;1.92;1.00;;;;;;;28.08;20.72;99957.09;5547120;32;33959;-85
2022/05/23 08:55:01;;;;;;;4.28;1.30;;;;;;;28.04;20.67;99958.53;5534699;32;34186;-85
2022/05/23 08:58:13;;;;;;;3.30;1.45;;;;;;;27.17;20.24;99952.28;5531982;32;34218;-84
2022/05/23 09:01:49;;;;;;;1.42;1.30;;;;;;;28.10;21.22;99946.84;5530136;32;33264;-85
2022/05/23 09:04:58;;;;;;;2.45;1.20;;;;;;;28.08;20.56;99943.47;5533444;32;32658;-89
2022/05/23 09:08:05;;;;;;;2.62;1.17;;;;;;;28.44;19.72;99933.34;5534494;32;34615;-84
2022/05/23 09:11:36;;;;;;;2.05;1.10;;;;;;;28.04;19.87;99934.00;5534897;32;34953;-84
2022/05/23 09:14:39;;;;;;;1.48;1.10;;;;;;;27.65;19.72;99925.44;5548017;32;32335;-84
2022/05/23 09:17:45;;;;;;;5.30;1.30;;;;;;;27.92;18.94;99929.16;5535986;32;32988;-84
2022/05/23 09:20:51;;;;;;;1.75;1.05;;;;;;;27.95;19.71;99931.47;5535004;32;32793;-83
2022/05/23 09:23:54;;;;;;;2.17;1.27;;;;;;;28.30;18.30;99927.03;5543677;32;33769;-83
2022/05/23 09:27:01;;;;;;;2.28;1.25;;;;;;;27.92;18.45;99923.72;5551268;32;32403;-83
2022/05/23 09:30:08;;;;;;;3.97;1.50;;;;;;;27.33;19.75;99919.53;5553182;32;33914;-83
2022/05/23 09:33:18;;;;;;;10.05;2.37;;;;;;;27.95;20.17;99917.03;5543207;32;33014;-83
2022/05/23 09:36:29;;;;;;;3.35;1.60;;;;;;;28.73;20.70;99925.87;5535478;32;32940;-83
2022/05/23 09:39:34;;;;;;;3.55;1.70;;;;;;;28.22;20.47;99920.69;5537250;32;34396;-83
2022/05/23 09:49:30;;;;;;;3.17;1.40;;;;;;;29.13;19.32;99914.16;5532613;32;34035;-83
2022/05/23 09:52:46;;;;;;;5.10;1.75;;;;;;;29.41;19.20;99910.37;5532224;32;34204;-87
2022/05/23 09:55:49;;;;;;;9.48;1.77;;;;;;;28.55;19.88;99910.94;5534043;32;32873;-84
2022/05/23 09:58:53;;;;;;;1.85;1.65;;;;;;;28.70;20.50;99907.19;5544114;32;35536;-86
2022/05/23 10:01:56;;;;;;;6.15;1.77;;;;;;;28.42;20.86;99913.62;5545436;32;33896;-86
2022/05/23 10:05:00;;;;;;;4.55;1.75;;;;;;;27.51;21.85;99905.41;5546266;32;34086;-84
2022/05/23 10:08:07;;;;;;;3.78;1.80;;;;;;;27.87;20.85;99909.84;5548468;32;32691;-84
2022/05/23 10:11:29;;;;;;;3.92;1.90;;;;;;;28.72;20.26;99895.03;5535099;32;33685;-83
2022/05/23 10:14:43;;;;;;;2.25;1.77;;;;;;;28.18;21.88;99908.50;5544187;32;33619;-83
2022/05/23 10:17:59;;;;;;;4.87;1.85;;;;;;;28.76;20.67;99895.44;5543237;32;33279;-85
2022/05/23 10:21:21;;;;;;;3.03;1.80;;;;;;;29.04;20.90;99895.28;5538919;32;33095;-85
2022/05/23 10:24:27;;;;;;;4.05;2.15;;;;;;;29.51;20.43;99899.03;5545180;32;32479;-86
2022/05/23 10:27:39;;;;;;;4.55;2.10;;;;;;;30.23;19.89;99888.03;5541763;32;33831;-84
2022/05/23 10:30:56;;;;;;;1.95;1.75;;;;;;;31.39;19.03;99883.44;5532270;32;33101;-83
2022/05/23 10:34:08;;;;;;;2.15;1.92;;;;;;;28.67;21.85;99881.16;5533627;32;34960;-85
2022/05/23 10:37:25;;;;;;;9.18;2.15;;;;;;;29.84;20.92;99879.81;5535246;32;33719;-86
2022/05/23 10:44:01;;;;;;;3.78;1.90;;;;;;;27.61;23.69;99886.87;5540638;32;33619;-83
2022/05/23 10:47:37;;;;;;;5.78;2.00;;;;;;;27.44;23.23;99878.13;5549358;32;33274;-84
2022/05/23 10:50:58;;;;;;;3.00;1.90;;;;;;;27.28;22.48;99882.00;5538209;32;32546;-83
2022/05/23 10:54:30;;;;;;;5.72;2.00;;;;;;;27.63;22.89;99875.75;5537365;32;33636;-82
2022/05/23 10:57:46;;;;;;;5.18;2.50;;;;;;;26.87;24.56;99850.91;5531569;32;32573;-86
2022/05/23 11:00:55;;;;;;;4.25;2.12;;;;;;;27.78;23.29;99857.41;5529948;32;33111;-85
2022/05/23 11:04:12;;;;;;;8.20;2.58;;;;;;;28.73;22.53;99855.78;5541799;32;33707;-87
2022/05/23 11:08:00;;;;;;;5.30;2.05;;;;;;;30.34;21.38;99855.59;5539233;32;35299;-91
2022/05/23 11:11:28;;;;;;;8.75;1.92;;;;;;;30.48;21.16;99843.50;5469602;32;34474;-87
2022/05/23 11:14:55;;;;;;;9.70;2.60;;;;;;;29.77;22.14;99842.63;5530051;32;32636;-87
2022/05/23 11:18:14;;;;;;;8.50;2.65;;;;;;;28.68;23.06;99841.06;5547494;32;35080;-86
2022/05/23 11:21:36;;;;;;;9.50;2.30;;;;;;;29.03;23.24;99830.81;5549067;32;35154;-86
2022/05/23 11:24:59;;;;;;;5.50;2.30;;;;;;;27.76;24.65;99837.66;5549688;32;33134;-86
2022/05/23 11:35:12;;;;;;;5.05;2.40;;;;;;;27.47;24.90;99844.22;5536300;32;33695;-86
2022/05/23 11:38:17;;;;;;;5.50;2.25;;;;;;;27.25;24.38;99842.41;5542493;32;33809;-86
2022/05/23 11:41:31;;;;;;;5.57;2.65;;;;;;;26.24;26.75;99841.53;5538265;32;33371;-86
2022/05/23 11:44:43;;;;;;;5.87;2.20;;;;;;;26.00;25.99;99838.12;5551848;32;33839;-86
2022/05/23 11:47:51;;;;;;;8.15;2.87;;;;;;;25.05;27.45;99841.41;5541850;32;33432;-86
2022/05/23 11:51:07;;;;;;;5.53;2.55;;;;;;;24.89;28.23;99829.66;5547855;32;35349;-87
2022/05/23 11:54:29;;;;;;;3.70;2.42;;;;;;;24.89;28.10;99828.84;5530513;32;33523;-86
2022/05/23 11:57:36;;;;;;;4.12;2.08;;;;;;;25.02;28.42;99828.19;5533420;32;33841;-86
2022/05/23 12:00:39;;;;;;;4.70;2.37;;;;;;;25.33;28.25;99818.22;5534823;32;34387;-86
2022/05/23 12:04:03;;;;;;;4.43;2.30;;;;;;;24.50;28.45;99823.34;5535339;32;32449;-87
2022/05/23 12:07:06;;;;;;;2.80;1.95;;;;;;;24.47;28.89;99823.72;5524729;32;34255;-90
2022/05/23 12:10:22;;;;;;;5.32;2.50;;;;;;;24.66;29.24;99829.69;5548188;32;35344;-91
2022/05/23 12:13:25;;;;;;;3.80;2.15;;;;;;;24.68;29.05;99821.38;5541346;32;33838;-87
2022/05/23 12:16:31;;;;;;;11.10;2.47;;;;;;;25.19;27.94;99831.56;5538306;32;32832;-87
2022/05/23 12:19:40;;;;;;;6.43;2.22;;;;;;;24.69;29.33;99837.44;5535446;32;34920;-87
2022/05/23 12:23:10;;;;;;;5.82;2.42;;;;;;;24.68;28.95;99827.63;5543990;32;35112;-87
2022/05/23 12:26:13;;;;;;;3.00;2.30;;;;;;;25.13;28.98;99838.59;5535829;32;34334;-86
2022/05/23 12:29:30;;;;;;;3.95;2.30;;;;;;;25.21;28.45;99818.69;5540430;32;33791;-87
2022/05/23 12:32:33;;;;;;;5.70;2.87;;;;;;;25.07;29.49;99805.94;5533523;32;34049;-85
2022/05/23 12:35:36;;;;;;;6.45;2.33;;;;;;;24.90;28.48;99800.69;5533713;32;33543;-86
2022/05/23 12:38:54;;;;;;;7.32;2.40;;;;;;;24.90;28.51;99793.38;5542193;32;32825;-87
2022/05/23 12:42:31;;;;;;;4.18;2.37;;;;;;;25.17;28.22;99788.37;5551978;32;33918;-87
2022/05/23 12:46:01;;;;;;;5.05;2.58;;;;;;;25.87;28.33;99781.75;5539793;32;33360;-87
2022/05/23 12:49:27;;;;;;;5.47;2.25;;;;;;;25.98;27.30;99780.37;5551071;32;34281;-88
2022/05/23 12:52:58;;;;;;;5.15;2.10;;;;;;;25.69;27.19;99766.72;5550033;32;33544;-87
2022/05/23 12:56:26;;;;;;;8.38;2.45;;;;;;;25.96;27.13;99774.31;5546840;32;33865;-86
2022/05/23 12:59:56;;;;;;;4.93;2.40;;;;;;;26.01;28.07;99780.03;5529647;32;34144;-86
2022/05/23 13:03:09;;;;;;;6.85;2.87;;;;;;;25.99;27.18;99773.91;5538677;32;32706;-85
2022/05/23 13:06:36;;;;;;;5.50;2.50;;;;;;;26.16;27.20;99774.53;5538814;32;32448;-84
2022/05/23 13:09:54;;;;;;;4.47;2.40;;;;;;;25.83;28.18;99761.41;5546824;32;34119;-84
2022/05/23 13:13:18;;;;;;;6.12;2.40;;;;;;;26.47;25.91;99750.78;5551041;32;33689;-89
2022/05/23 13:16:30;;;;;;;3.80;2.25;;;;;;;25.62;26.49;99754.94;5541874;32;33716;-85
2022/05/23 13:22:54;;;;;;;6.43;2.55;;;;;;;25.86;26.09;99752.03;5540411;32;34278;-85
2022/05/23 13:26:04;;;;;;;3.20;2.12;;;;;;;25.95;26.73;99750.91;5534849;32;33927;-85
2022/05/23 13:29:29;;;;;;;11.07;2.50;;;;;;;25.97;25.74;99743.41;5544051;32;32541;-83
2022/05/23 13:32:32;;;;;;;5.45;2.10;;;;;;;25.66;27.11;99739.09;5546390;32;33056;-85
2022/05/23 13:35:36;;;;;;;3.20;2.30;;;;;;;26.44;26.24;99732.97;5550531;32;33603;-85
2022/05/23 13:38:43;;;;;;;6.20;2.33;;;;;;;26.69;25.79;99739.88;5550984;32;33989;-85
2022/05/23 13:41:46;;;;;;;2.30;2.10;;;;;;;26.59;25.88;99732.06;5552329;32;34655;-84
2022/05/23 13:45:11;;;;;;;2.85;2.15;;;;;;;25.86;27.08;99725.75;5559705;32;33315;-86
2022/05/23 13:48:23;;;;;;;3.67;2.47;;;;;;;26.31;25.72;99725.56;5559704;32;32968;-85
2022/05/23 13:51:43;;;;;;;12.73;2.47;;;;;;;24.65;27.75;99727.69;5548471;32;33553;-84
2022/05/23 13:55:12;;;;;;;2.42;1.95;;;;;;;24.81;28.22;99729.41;5535989;32;33657;-89
2022/05/23 13:58:18;;;;;;;5.10;2.42;;;;;;;25.24;26.88;99725.19;5535880;32;32589;-84
2022/05/23 14:01:40;;;;;;;3.05;2.30;;;;;;;25.01;28.13;99718.84;5540468;32;33742;-84
2022/05/23 14:04:46;;;;;;;2.40;2.20;;;;;;;24.95;27.98;99721.47;5554743;32;33769;-85
2022/05/23 14:07:50;;;;;;;4.30;2.55;;;;;;;24.60;27.87;99713.84;5556683;32;34025;-84
2022/05/23 14:10:53;;;;;;;3.75;2.40;;;;;;;24.89;28.53;99707.59;5542310;32;33435;-84
2022/05/23 14:14:01;;;;;;;3.42;2.50;;;;;;;24.62;27.92;99706.34;5536225;32;32271;-84
2022/05/23 14:17:25;;;;;;;4.95;2.60;;;;;;;24.56;28.50;99715.22;5543328;32;34511;-84
2022/05/23 14:20:28;;;;;;;5.93;2.25;;;;;;;24.50;28.99;99708.69;5540698;32;34045;-84
2022/05/23 14:23:34;;;;;;;5.87;2.65;;;;;;;24.15;28.91;99700.19;5539438;32;32782;-84
2022/05/23 14:26:38;;;;;;;6.12;2.33;;;;;;;23.86;29.31;99697.16;5536147;32;33338;-85
2022/05/23 14:29:44;;;;;;;3.25;2.20;;;;;;;24.35;29.15;99697.81;5536103;32;34020;-84
2022/05/23 14:33:00;;;;;;;6.20;2.75;;;;;;;24.48;28.47;99697.16;5536583;32;34500;-85
2022/05/23 14:36:20;;;;;;;4.68;2.53;;;;;;;24.52;27.93;99686.78;5531451;32;33949;-85
2022/05/23 14:39:29;;;;;;;3.92;2.45;;;;;;;24.44;28.38;99688.56;5529512;32;32716;-87
2022/05/23 14:42:37;;;;;;;4.97;2.15;;;;;;;24.30;28.88;99694.78;5529701;32;35017;-91
2022/05/23 14:45:59;;;;;;;3.12;2.50;;;;;;;24.13;29.17;99686.81;5531584;32;33948;-87
2022/05/23 14:49:16;;;;;;;2.78;2.12;;;;;;;24.26;29.20;99682.63;5534978;32;32298;-87
2022/05/23 14:52:32;;;;;;;5.60;2.65;;;;;;;24.45;29.59;99678.56;5533560;32;34196;-85
2022/05/23 14:55:46;;;;;;;7.28;2.67;;;;;;;24.46;29.76;99674.81;5535003;32;32868;-85
2022/05/23 15:02:20;;;;;;;6.45;2.33;;;;;;;24.84;28.78;99680.19;5550941;32;34376;-86
2022/05/23 15:05:23;;;;;;;5.32;2.10;;;;;;;24.94;28.27;99668.25;5559832;32;34100;-85
2022/05/23 15:08:27;;;;;;;4.15;2.42;;;;;;;24.84;28.83;99663.94;5556764;32;34180;-85
2022/05/23 15:11:34;;;;;;;3.70;2.20;;;;;;;24.73;29.41;99659.78;5548849;32;32508;-85
2022/05/23 15:14:37;;;;;;;3.78;2.33;;;;;;;24.46;29.45;99650.44;5548998;32;33967;-85
2022/05/23 15:17:40;;;;;;;4.15;2.72;;;;;;;24.51;29.70;99661.56;5551327;32;34504;-85
2022/05/23 15:20:43;;;;;;;3.90;2.80;;;;;;;24.53;29.31;99655.97;5549060;32;33076;-85
2022/05/23 15:23:48;;;;;;;3.78;2.55;;;;;;;24.46;29.62;99642.31;5549244;32;32646;-85
2022/05/23 15:26:51;;;;;;;3.60;2.67;;;;;;;24.26;30.49;99633.84;5550222;32;33850;-85
2022/05/23 15:29:57;;;;;;;4.82;2.80;;;;;;;24.19;30.64;99631.88;5549583;32;32764;-85
2022/05/23 15:33:01;;;;;;;5.80;3.00;;;;;;;24.42;30.83;99633.69;5550485;32;33823;-85
2022/05/23 15:36:05;;;;;;;4.40;2.67;;;;;;;24.16;30.45;99628.69;5549535;32;32082;-85
2022/05/23 15:39:10;;;;;;;5.03;2.70;;;;;;;24.11;29.96;99626.56;5548505;32;33023;-85
